Time;durP1;ratioP1;P1;durP2;ratioP2;P2;SDS_P1;SDS_P2;PMS_P1;PMS_P2;Temp;Humidity;BMP_temperature;BMP_pressure;BME280_temperature;BME280_humidity;BME280_pressure;Samples;Min_cycle;Max_cycle;Signal;HPM_P1;HPM_P2
2021/04/13 00:01:17;;;;;;;13.72;9.15;;;;;;;6.05;83.47;101227.16;2900039;82;21121;-65
2021/04/13 00:05:38;;;;;;;18.35;10.05;;;;;;;6.10;83.33;101218.56;2899833;81;21579;-63
2021/04/13 00:09:44;;;;;;;16.87;9.30;;;;;;;6.06;82.58;101224.90;2900223;82;21161;-64
2021/04/13 00:13:51;;;;;;;11.65;8.88;;;;;;;5.95;83.20;101225.38;2900081;82;22202;-63
2021/04/13 00:17:57;;;;;;;12.05;9.58;;;;;;;6.03;83.76;101225.53;2870295;82;21519;-65
2021/04/13 00:22:00;;;;;;;14.90;9.03;;;;;;;6.17;83.66;101234.11;2899388;80;21568;-65
2021/04/13 00:26:06;;;;;;;9.58;8.00;;;;;;;6.29;83.24;101233.53;2899089;80;21161;-64
2021/04/13 00:30:17;;;;;;;9.90;7.40;;;;;;;6.32;82.34;101239.11;2899410;82;21109;-64
2021/04/13 00:34:31;;;;;;;13.85;9.70;;;;;;;6.23;82.22;101228.07;2899327;82;21634;-64
2021/04/13 00:38:41;;;;;;;11.50;8.90;;;;;;;6.22;82.11;101232.09;2898937;82;21110;-66
2021/04/13 00:42:45;;;;;;;19.25;13.32;;;;;;;6.14;81.37;101225.41;2899248;82;22458;-63
2021/04/13 00:47:02;;;;;;;19.57;12.15;;;;;;;6.05;81.32;101223.19;2899190;82;21144;-64
2021/04/13 00:51:22;;;;;;;22.35;11.18;;;;;;;5.99;81.63;101226.98;2899435;82;21214;-63
2021/04/13 00:55:36;;;;;;;17.52;11.43;;;;;;;5.96;81.59;101223.61;2874923;80;21607;-63
2021/04/13 00:59:39;;;;;;;16.73;11.28;;;;;;;5.90;82.21;101219.95;2897490;82;21579;-63
2021/04/13 01:04:01;;;;;;;17.57;10.88;;;;;;;5.86;82.24;101231.95;2899272;81;21121;-63
2021/04/13 01:08:22;;;;;;;14.23;9.85;;;;;;;5.82;82.94;101222.47;2898751;82;21157;-65
2021/04/13 01:12:30;;;;;;;17.82;11.20;;;;;;;5.84;83.11;101224.57;2899280;82;21149;-63
2021/04/13 01:16:38;;;;;;;17.55;10.58;;;;;;;5.92;82.96;101226.02;2899058;82;21113;-64
2021/04/13 01:20:49;;;;;;;15.18;9.90;;;;;;;5.93;82.27;101227.73;2898415;82;21216;-64
2021/04/13 01:24:58;;;;;;;20.25;11.60;;;;;;;5.92;82.12;101237.90;2899322;81;21531;-64
2021/04/13 01:29:03;;;;;;;15.88;9.65;;;;;;;6.01;82.48;101230.88;2899029;82;21636;-64
2021/04/13 01:33:15;;;;;;;15.15;8.43;;;;;;;6.06;81.93;101230.66;2899330;82;21176;-64
2021/04/13 01:37:46;;;;;;;14.20;9.48;;;;;;;6.10;82.10;101229.13;2899242;82;21133;-64
2021/04/13 01:42:00;;;;;;;12.25;8.00;;;;;;;6.09;81.76;101234.03;2897896;82;21708;-64
2021/04/13 01:46:04;;;;;;;13.45;7.65;;;;;;;6.01;81.33;101229.55;2869899;82;21161;-63
2021/04/13 01:50:19;;;;;;;5.00;3.92;;;;;;;5.89;80.05;101226.13;2899011;82;21173;-64
2021/04/13 01:54:23;;;;;;;6.20;2.00;;;;;;;5.85;77.68;101228.92;2899000;82;21093;-63
2021/04/13 01:58:48;;;;;;;3.35;2.85;;;;;;;5.80;76.48;101225.65;2898878;82;21591;-64
2021/04/13 02:02:59;;;;;;;5.33;3.10;;;;;;;5.87;75.93;101226.22;2902738;81;21133;-64
2021/04/13 02:11:57;;;;;;;6.20;4.25;;;;;;;5.82;77.10;101229.07;2915835;81;21148;-64
2021/04/13 02:16:08;;;;;;;6.53;4.75;;;;;;;5.84;78.53;101223.25;2917947;81;21149;-64
2021/04/13 02:20:15;;;;;;;12.53;5.55;;;;;;;5.76;79.64;101224.09;2917860;81;21093;-62
2021/04/13 02:24:22;;;;;;;9.85;4.92;;;;;;;5.77;80.37;101222.28;2918173;81;21153;-63
2021/04/13 02:28:28;;;;;;;6.40;5.55;;;;;;;5.85;80.83;101224.13;2918382;80;21132;-63
2021/04/13 02:32:37;;;;;;;9.68;5.92;;;;;;;5.90;80.70;101219.47;2918054;80;21125;-63
2021/04/13 02:36:47;;;;;;;9.90;4.87;;;;;;;5.93;80.40;101219.32;2918207;81;21153;-65
2021/04/13 02:41:00;;;;;;;8.43;5.40;;;;;;;5.96;80.45;101220.97;2918164;81;21120;-62
2021/04/13 02:45:07;;;;;;;10.50;5.78;;;;;;;5.99;80.38;101222.14;2917505;81;21582;-65
2021/04/13 02:49:18;;;;;;;5.42;3.92;;;;;;;6.01;80.37;101222.95;2892422;81;21129;-64
2021/04/13 02:53:29;;;;;;;8.38;4.80;;;;;;;6.03;80.59;101218.45;2917925;81;21567;-63
2021/04/13 02:57:42;;;;;;;7.33;3.75;;;;;;;6.05;80.57;101218.39;2917458;80;21875;-64
2021/04/13 03:02:19;;;;;;;4.70;3.52;;;;;;;6.00;80.50;101215.93;2917941;81;21105;-64
2021/04/13 03:06:23;;;;;;;9.15;5.12;;;;;;;5.96;80.61;101213.89;2917813;81;21144;-64
2021/04/13 03:10:31;;;;;;;10.75;3.95;;;;;;;5.90;80.62;101209.39;2918192;81;21165;-67
2021/04/13 03:14:39;;;;;;;5.28;4.25;;;;;;;5.89;80.99;101210.28;2892701;81;21117;-67
2021/04/13 03:18:49;;;;;;;5.00;3.98;;;;;;;5.88;81.10;101212.54;2917396;81;21109;-62
2021/04/13 03:22:57;;;;;;;10.28;5.75;;;;;;;5.78;80.88;101214.30;2917857;81;21591;-63
2021/04/13 03:27:05;;;;;;;7.12;4.47;;;;;;;5.66;81.23;101218.38;2917737;81;21104;-62
2021/04/13 03:31:09;;;;;;;7.90;5.78;;;;;;;5.58;81.57;101221.37;2918069;81;21105;-61
2021/04/13 03:35:12;;;;;;;7.65;5.55;;;;;;;5.52;81.96;101226.06;2918108;81;21149;-62
2021/04/13 03:39:35;;;;;;;8.40;4.85;;;;;;;5.55;81.98;101224.16;2918104;81;21152;-62
2021/04/13 03:43:39;;;;;;;5.78;4.25;;;;;;;5.54;81.90;101230.36;2918044;81;21156;-62
2021/04/13 03:47:45;;;;;;;8.80;7.22;;;;;;;5.57;81.86;101232.86;2917762;81;21170;-62
2021/04/13 03:51:51;;;;;;;;;;;;;;;5.55;81.79;101232.07;2920879;80;21152;-62
2021/04/13 03:56:05;;;;;;;11.68;8.68;;;;;;;5.51;81.69;101238.42;2917594;81;20193;-62
2021/04/13 04:00:17;;;;;;;10.60;5.83;;;;;;;5.44;81.96;101239.61;2917492;81;21097;-62
2021/04/13 04:04:27;;;;;;;8.75;6.45;;;;;;;5.39;82.11;101242.92;2909820;81;21128;-60
2021/04/13 04:08:41;;;;;;;8.98;7.00;;;;;;;5.31;82.32;101239.30;2898965;82;21654;-61
2021/04/13 04:12:41;;;;;;;8.00;5.55;;;;;;;5.23;82.53;101243.59;2898881;82;21165;-62
2021/04/13 04:16:45;;;;;;;10.93;7.17;;;;;;;5.16;82.42;101244.80;2899232;80;21575;-62
2021/04/13 04:20:48;;;;;;;10.28;6.80;;;;;;;5.05;82.40;101256.27;2899427;82;21098;-62
2021/04/13 04:24:55;;;;;;;11.45;6.80;;;;;;;4.93;82.73;101262.48;2899468;82;21141;-61
2021/04/13 04:29:23;;;;;;;9.43;7.47;;;;;;;4.91;83.15;101272.20;2898859;80;21125;-62
2021/04/13 04:33:37;;;;;;;8.25;6.55;;;;;;;4.90;83.24;101270.49;2895450;82;21145;-61
2021/04/13 04:37:57;;;;;;;11.15;6.50;;;;;;;4.87;83.45;101266.67;2898875;82;21654;-62
2021/04/13 04:42:29;;;;;;;7.92;5.85;;;;;;;4.95;83.90;101263.72;2880057;82;21181;-60
2021/04/13 04:46:42;;;;;;;12.98;7.75;;;;;;;5.00;83.73;101267.87;2899182;82;21130;-60
2021/04/13 04:50:46;;;;;;;9.48;7.15;;;;;;;5.05;84.15;101275.60;2870085;82;21559;-61
2021/04/13 04:54:50;;;;;;;10.23;7.55;;;;;;;5.12;84.36;101281.47;2899143;82;21145;-61
2021/04/13 04:58:52;;;;;;;10.20;7.17;;;;;;;5.23;84.58;101284.48;2898923;82;21674;-60
2021/04/13 05:02:56;;;;;;;20.48;10.10;;;;;;;5.41;84.54;101287.25;2899458;81;21145;-61
2021/04/13 05:06:59;;;;;;;11.40;7.75;;;;;;;5.54;83.71;101294.16;2922229;81;21148;-62
2021/04/13 05:11:04;;;;;;;12.10;6.78;;;;;;;5.55;83.33;101283.54;2922220;81;21117;-62
2021/04/13 05:15:10;;;;;;;15.83;10.78;;;;;;;5.57;83.12;101296.65;2922201;81;21785;-61
2021/04/13 05:19:13;;;;;;;10.43;6.75;;;;;;;5.63;83.15;101292.44;2922121;81;21149;-62
2021/04/13 05:23:18;;;;;;;11.48;8.90;;;;;;;5.71;82.80;101285.49;2922250;81;21157;-61
2021/04/13 05:27:22;;;;;;;11.85;8.40;;;;;;;5.81;83.10;101296.49;2922106;81;21144;-61
2021/04/13 05:31:25;;;;;;;21.68;9.95;;;;;;;5.95;82.63;101300.66;2922228;81;21176;-61
2021/04/13 05:35:29;;;;;;;10.38;8.10;;;;;;;5.92;81.77;101300.80;2922175;80;21117;-60
2021/04/13 05:39:31;;;;;;;8.88;6.90;;;;;;;5.88;81.43;101306.28;2921969;81;21575;-62
2021/04/13 05:43:38;;;;;;;12.33;8.68;;;;;;;5.88;81.89;101299.68;2922283;81;21156;-62
2021/04/13 05:47:42;;;;;;;11.97;7.62;;;;;;;5.83;81.46;101302.08;2922504;81;21168;-61
2021/04/13 05:51:45;;;;;;;11.05;8.53;;;;;;;5.81;81.60;101311.02;2922039;81;21145;-62
2021/04/13 05:55:51;;;;;;;11.33;8.03;;;;;;;5.85;81.80;101308.14;2922083;81;21121;-60
2021/04/13 05:59:56;;;;;;;9.95;7.20;;;;;;;5.90;82.18;101316.34;2922041;81;21169;-62
2021/04/13 06:03:59;;;;;;;10.93;7.28;;;;;;;5.94;81.28;101321.87;2917534;81;21169;-61
2021/04/13 06:08:04;;;;;;;8.85;6.25;;;;;;;5.97;81.60;101319.92;2898995;82;21145;-60
2021/04/13 06:12:09;;;;;;;10.32;6.55;;;;;;;5.99;80.69;101331.75;2898720;82;21607;-61
2021/04/13 06:16:15;;;;;;;10.10;6.50;;;;;;;6.02;80.58;101336.08;2898891;82;21145;-61
2021/04/13 06:20:20;;;;;;;17.30;8.13;;;;;;;6.12;81.25;101331.63;2899080;82;21595;-61
2021/04/13 06:24:23;;;;;;;12.65;7.62;;;;;;;6.14;81.21;101338.14;2898861;82;21138;-62
2021/04/13 06:28:27;;;;;;;9.15;5.35;;;;;;;6.24;81.29;101338.56;2899040;82;21142;-62
2021/04/13 06:32:30;;;;;;;10.00;6.85;;;;;;;6.37;81.37;101333.10;2898820;82;21145;-62
2021/04/13 06:36:36;;;;;;;6.97;5.85;;;;;;;6.47;79.84;101340.12;2898890;82;21145;-61
2021/04/13 06:41:21;;;;;;;9.10;7.45;;;;;;;6.62;79.77;101346.94;2898974;82;21142;-61
2021/04/13 06:45:49;;;;;;;9.38;7.05;;;;;;;6.77;79.97;101342.20;2898854;82;21161;-61
2021/04/13 06:50:30;;;;;;;13.40;7.25;;;;;;;6.96;78.94;101350.10;2899052;82;21133;-62
2021/04/13 06:54:55;;;;;;;10.15;6.00;;;;;;;7.03;77.87;101365.21;2898867;82;21591;-63
2021/04/13 06:59:32;;;;;;;8.38;7.28;;;;;;;7.10;78.20;101367.93;2898836;82;21571;-62
2021/04/13 07:03:56;;;;;;;7.03;5.97;;;;;;;7.22;76.62;101366.45;2899616;81;21138;-63
2021/04/13 07:08:08;;;;;;;6.70;6.00;;;;;;;7.29;77.14;101366.55;2878677;80;21180;-62
2021/04/13 07:12:34;;;;;;;7.55;5.87;;;;;;;7.58;76.19;101368.64;2921988;81;21148;-61
2021/04/13 07:16:49;;;;;;;6.30;5.70;;;;;;;7.65;73.72;101367.38;2922016;81;21168;-64
2021/04/13 07:21:26;;;;;;;7.20;5.25;;;;;;;7.67;72.60;101369.95;2891864;81;21149;-64
2021/04/13 07:25:34;;;;;;;13.83;6.37;;;;;;;7.54;73.21;101371.91;2922349;81;21101;-63
2021/04/13 07:29:44;;;;;;;9.88;5.37;;;;;;;7.52;73.29;101378.20;2922089;81;21140;-64
2021/04/13 07:33:47;;;;;;;10.23;7.53;;;;;;;7.54;73.72;101382.95;2922314;81;21606;-63
2021/04/13 07:37:53;;;;;;;9.10;5.35;;;;;;;7.67;74.71;101379.22;2922103;81;21181;-65
2021/04/13 07:42:06;;;;;;;6.23;5.40;;;;;;;7.73;72.97;101385.52;2922642;81;21116;-63
2021/04/13 07:46:37;;;;;;;8.10;5.08;;;;;;;7.78;73.54;101374.69;2922115;81;21137;-64
2021/04/13 07:51:25;;;;;;;7.35;4.17;;;;;;;7.77;72.53;101378.27;2922412;81;21161;-64
2021/04/13 07:55:49;;;;;;;7.20;5.47;;;;;;;7.77;73.24;101373.81;2922471;80;21108;-64
2021/04/13 08:00:11;;;;;;;8.55;6.60;;;;;;;7.89;72.34;101377.60;2922281;81;21108;-63
2021/04/13 08:04:19;;;;;;;5.30;4.10;;;;;;;7.87;72.60;101379.48;2922318;81;21149;-65
2021/04/13 08:08:41;;;;;;;5.72;4.67;;;;;;;7.96;73.24;101376.81;2922032;81;21583;-63
2021/04/13 08:13:01;;;;;;;11.33;6.30;;;;;;;8.09;73.42;101373.91;2922371;81;21137;-64
2021/04/13 08:17:18;;;;;;;13.62;5.10;;;;;;;8.26;72.62;101369.00;2921662;81;21562;-64
2021/04/13 08:21:26;;;;;;;5.12;4.62;;;;;;;8.41;72.34;101363.30;2922232;80;21686;-63
2021/04/13 08:25:41;;;;;;;4.15;3.75;;;;;;;8.46;71.63;101368.84;2922338;81;21113;-64
2021/04/13 08:30:05;;;;;;;4.30;2.77;;;;;;;8.49;70.34;101370.00;2922329;81;21184;-64
2021/04/13 08:34:47;;;;;;;6.20;4.65;;;;;;;8.58;69.93;101370.83;2922394;80;21140;-64
2021/04/13 08:39:03;;;;;;;5.30;3.58;;;;;;;8.70;70.10;101362.19;2922551;81;21144;-64
2021/04/13 08:43:15;;;;;;;3.22;2.70;;;;;;;8.92;70.15;101359.63;2922464;81;21141;-63
2021/04/13 08:47:29;;;;;;;8.90;4.12;;;;;;;9.06;69.29;101360.63;2922546;81;21140;-64
2021/04/13 08:51:47;;;;;;;5.50;3.98;;;;;;;9.10;66.51;101364.33;2921771;80;21097;-64
2021/04/13 08:55:54;;;;;;;4.47;3.25;;;;;;;9.04;65.75;101362.03;2922663;81;21145;-65
2021/04/13 09:00:01;;;;;;;5.25;3.25;;;;;;;9.06;64.75;101365.94;2895304;81;21136;-65
2021/04/13 09:04:09;;;;;;;4.55;2.65;;;;;;;9.09;64.60;101365.76;2922279;81;21145;-65
2021/04/13 09:08:36;;;;;;;4.90;3.22;;;;;;;9.08;65.08;101365.37;2898781;82;21689;-64
2021/04/13 09:12:41;;;;;;;6.85;3.85;;;;;;;9.24;65.37;101373.29;2897958;82;21106;-64
2021/04/13 09:17:09;;;;;;;5.33;2.67;;;;;;;9.22;64.49;101378.67;2899409;82;21149;-64
2021/04/13 09:21:45;;;;;;;7.37;3.80;;;;;;;9.22;63.80;101365.40;2899151;82;21508;-65
2021/04/13 09:26:12;;;;;;;6.08;3.58;;;;;;;9.40;62.27;101362.14;2860958;82;21138;-62
2021/04/13 09:30:23;;;;;;;4.08;3.50;;;;;;;9.36;63.08;101354.44;2899481;82;21177;-62
2021/04/13 09:34:37;;;;;;;3.15;2.83;;;;;;;9.43;62.27;101359.76;2899696;82;21145;-63
2021/04/13 09:38:51;;;;;;;3.75;2.52;;;;;;;9.53;62.73;101351.63;2899346;82;21078;-64
2021/04/13 09:43:26;;;;;;;5.00;2.77;;;;;;;9.59;61.29;101353.06;2854709;82;21153;-62
2021/04/13 09:48:02;;;;;;;4.08;3.20;;;;;;;9.64;60.41;101351.47;2898942;82;21153;-63
2021/04/13 09:52:28;;;;;;;5.28;3.85;;;;;;;9.71;61.75;101352.30;2898955;82;21137;-63
2021/04/13 09:56:45;;;;;;;6.45;3.50;;;;;;;9.84;63.28;101340.47;2899074;82;21453;-62
2021/04/13 10:01:28;;;;;;;4.75;3.52;;;;;;;9.96;64.73;101341.50;2899001;82;21113;-64
2021/04/13 10:05:38;;;;;;;5.87;2.20;;;;;;;10.19;63.28;101341.86;2905863;81;21160;-65
2021/04/13 10:09:44;;;;;;;1.87;1.70;;;;;;;10.50;58.34;101345.71;2922304;81;21173;-63
2021/04/13 10:14:12;;;;;;;4.80;2.08;;;;;;;10.43;54.79;101344.79;2922582;81;21152;-63
2021/04/13 10:18:54;;;;;;;5.83;2.47;;;;;;;10.27;59.42;101330.23;2887704;81;21105;-64
2021/04/13 10:23:31;;;;;;;3.00;2.17;;;;;;;10.35;56.35;101335.56;2922419;81;21165;-65
2021/04/13 10:28:15;;;;;;;1.65;1.47;;;;;;;10.17;56.76;101322.95;2922639;81;21149;-64
2021/04/13 10:32:51;;;;;;;;;;;;;;;10.15;56.49;101331.87;2924784;81;21594;-63
2021/04/13 10:37:19;;;;;;;4.42;2.00;;;;;;;10.17;59.00;101323.81;2922284;81;20160;-64
2021/04/13 10:41:44;;;;;;;3.00;2.65;;;;;;;10.15;57.36;101310.61;2922039;81;21511;-64
2021/04/13 10:46:15;;;;;;;1.92;1.52;;;;;;;10.14;55.95;101312.89;2922427;81;21184;-63
2021/04/13 10:50:57;;;;;;;1.87;1.75;;;;;;;10.30;55.78;101307.92;2922153;81;21574;-63
2021/04/13 10:55:20;;;;;;;3.72;2.35;;;;;;;10.27;53.33;101310.79;2891569;81;21606;-64
2021/04/13 10:59:40;;;;;;;9.88;4.33;;;;;;;10.33;57.27;101298.91;2922371;81;21085;-64
2021/04/13 11:04:24;;;;;;;6.20;3.87;;;;;;;10.43;57.84;101301.36;2914655;81;21137;-64
2021/04/13 11:08:49;;;;;;;3.77;2.20;;;;;;;10.45;57.63;101297.28;2922154;81;21133;-64
2021/04/13 11:13:34;;;;;;;4.40;2.70;;;;;;;10.55;53.70;101283.73;2922424;81;21571;-63
2021/04/13 11:17:51;;;;;;;2.10;1.92;;;;;;;10.30;55.12;101289.31;2922256;81;21357;-63
2021/04/13 11:22:22;;;;;;;4.67;4.10;;;;;;;10.15;54.99;101284.02;2922439;81;21148;-62
2021/04/13 11:27:09;;;;;;;3.55;3.12;;;;;;;9.95;55.98;101281.32;2922137;81;21131;-63
2021/04/13 11:31:53;;;;;;;2.60;2.40;;;;;;;9.98;57.53;101285.57;2922212;81;21120;-62
2021/04/13 11:36:04;;;;;;;3.85;2.50;;;;;;;10.10;57.88;101283.47;2922017;81;21140;-63
2021/04/13 11:40:21;;;;;;;5.53;2.45;;;;;;;10.67;56.63;101282.94;2921990;81;21160;-63
2021/04/13 11:44:37;;;;;;;2.42;2.12;;;;;;;11.06;56.77;101272.85;2922061;81;21158;-62
2021/04/13 11:48:54;;;;;;;6.42;2.67;;;;;;;10.91;52.14;101273.42;2922210;81;21117;-63
2021/04/13 11:53:29;;;;;;;3.45;2.52;;;;;;;10.86;55.16;101270.57;2921719;80;21105;-62
2021/04/13 11:57:54;;;;;;;4.97;2.40;;;;;;;10.94;55.86;101275.38;2922021;81;21534;-62
2021/04/13 12:02:25;;;;;;;3.08;2.35;;;;;;;10.88;55.79;101272.27;2922185;81;21148;-64
2021/04/13 12:07:04;;;;;;;2.33;1.90;;;;;;;10.95;56.33;101263.77;2922253;81;21149;-64
2021/04/13 12:11:18;;;;;;;2.52;2.22;;;;;;;11.07;52.60;101260.75;2922145;81;21536;-65
2021/04/13 12:15:26;;;;;;;3.40;1.90;;;;;;;11.10;51.86;101252.58;2922499;80;21140;-63
2021/04/13 12:19:29;;;;;;;2.40;2.20;;;;;;;11.10;52.63;101249.91;2922419;81;21108;-63
2021/04/13 12:23:54;;;;;;;1.80;1.70;;;;;;;11.25;52.48;101243.99;2922402;81;21478;-63
2021/04/13 12:28:34;;;;;;;1.73;1.60;;;;;;;11.29;51.66;101241.48;2922678;81;21156;-64
2021/04/13 12:32:44;;;;;;;2.52;1.98;;;;;;;11.20;52.58;101241.27;2922522;81;22248;-63
2021/04/13 12:36:57;;;;;;;2.52;1.02;;;;;;;11.11;52.56;101225.45;2922833;81;21112;-63
2021/04/13 12:41:34;;;;;;;1.52;1.15;;;;;;;11.03;51.14;101233.96;2922574;80;21104;-62
2021/04/13 12:45:48;;;;;;;6.40;1.53;;;;;;;11.19;47.62;101212.44;2919442;81;21140;-64
2021/04/13 12:49:51;;;;;;;1.05;0.88;;;;;;;11.32;47.53;101212.92;2922698;80;21160;-63
2021/04/13 12:54:33;;;;;;;2.40;1.47;;;;;;;11.32;49.07;101211.59;2922353;81;21144;-63
2021/04/13 12:58:43;;;;;;;1.35;0.80;;;;;;;11.18;50.11;101200.59;2922404;81;21168;-63
2021/04/13 13:02:50;;;;;;;4.08;1.30;;;;;;;11.16;47.35;101205.17;2928787;80;21109;-63
2021/04/13 13:06:58;;;;;;;2.42;0.78;;;;;;;11.34;46.15;101188.36;2942978;78;21146;-60
2021/04/13 13:11:12;;;;;;;1.65;1.55;;;;;;;11.37;48.33;101178.35;2924915;80;21622;-59
2021/04/13 13:15:15;;;;;;;4.30;1.65;;;;;;;11.54;48.91;101174.97;2899456;82;21094;-60
2021/04/13 13:19:33;;;;;;;2.72;1.27;;;;;;;11.70;47.14;101176.03;2899446;81;21596;-62
2021/04/13 13:23:42;;;;;;;1.40;0.62;;;;;;;11.65;45.90;101171.52;2899468;82;21153;-59
2021/04/13 13:27:45;;;;;;;1.80;0.93;;;;;;;11.62;46.81;101161.09;2899947;81;21153;-61
2021/04/13 13:31:49;;;;;;;1.27;1.05;;;;;;;11.43;47.54;101153.09;2899464;82;21153;-62
2021/04/13 13:35:55;;;;;;;2.33;1.27;;;;;;;11.25;46.54;101154.77;2899733;82;21121;-62
2021/04/13 13:40:00;;;;;;;1.17;0.90;;;;;;;11.10;47.84;101155.85;2917786;80;21140;-61
2021/04/13 13:44:15;;;;;;;1.92;1.15;;;;;;;11.07;48.85;101153.41;2947941;80;21179;-61
2021/04/13 13:48:27;;;;;;;4.40;1.20;;;;;;;11.02;47.26;101143.57;3029496;77;27899;-61
2021/04/13 13:52:51;;;;;;;1.98;1.30;;;;;;;10.98;49.85;101141.09;3007301;78;21125;-60
2021/04/13 13:56:55;;;;;;;1.27;1.12;;;;;;;10.93;49.91;101144.56;2977813;79;21559;-61
2021/04/13 14:01:12;;;;;;;2.35;1.02;;;;;;;10.83;51.74;101147.52;3004236;79;21185;-60
2021/04/13 14:05:23;;;;;;;1.35;0.90;;;;;;;10.84;49.46;101135.91;3005489;78;21133;-61
2021/04/13 14:09:27;;;;;;;3.77;1.30;;;;;;;10.84;48.76;101138.57;3005413;79;22143;-70
2021/04/13 14:13:33;;;;;;;2.00;0.50;;;;;;;10.85;49.16;101136.28;2974996;78;21141;-61
2021/04/13 14:17:37;;;;;;;3.05;1.10;;;;;;;10.86;48.62;101128.17;2961081;79;21169;-65
2021/04/13 14:21:40;;;;;;;4.85;0.93;;;;;;;10.87;47.24;101134.36;2960929;80;21133;-67
2021/04/13 14:25:45;;;;;;;1.82;0.72;;;;;;;10.92;49.22;101128.22;2960666;80;21122;-68
2021/04/13 14:30:16;;;;;;;2.25;1.32;;;;;;;10.98;49.65;101133.11;2960631;80;21129;-67
2021/04/13 14:34:22;;;;;;;1.45;1.35;;;;;;;10.97;48.27;101131.91;2785974;85;21169;-67
2021/04/13 14:38:25;;;;;;;1.22;0.70;;;;;;;11.06;48.62;101131.24;2727555;87;21506;-68
2021/04/13 14:42:28;;;;;;;1.85;1.00;;;;;;;11.11;47.63;101124.27;2745762;85;21626;-68
2021/04/13 14:46:34;;;;;;;1.20;1.10;;;;;;;11.15;46.98;101123.09;2772957;85;21152;-67
2021/04/13 14:50:42;;;;;;;1.80;1.50;;;;;;;11.45;50.09;101127.19;2726502;86;21136;-68
2021/04/13 14:54:45;;;;;;;2.25;2.05;;;;;;;11.64;48.28;101132.02;2760849;86;21702;-68
2021/04/13 14:58:48;;;;;;;1.85;1.40;;;;;;;11.61;47.27;101124.75;2726031;87;21212;-68
2021/04/13 15:02:51;;;;;;;2.98;1.72;;;;;;;11.38;49.31;101125.91;2760692;86;21177;-67
2021/04/13 15:06:55;;;;;;;1.60;1.10;;;;;;;11.21;48.37;101119.14;2725805;87;21183;-67
2021/04/13 15:10:59;;;;;;;3.52;2.27;;;;;;;10.99;48.55;101117.51;2760813;86;21173;-67
2021/04/13 15:15:04;;;;;;;4.08;1.70;;;;;;;10.98;47.87;101116.30;2764770;85;21130;-68
2021/04/13 15:19:07;;;;;;;7.95;5.55;;;;;;;10.90;49.15;101108.85;2764700;85;21629;-67
2021/04/13 15:23:12;;;;;;;5.10;3.92;;;;;;;10.79;47.68;101106.95;2764871;85;21618;-68
2021/04/13 15:27:15;;;;;;;2.52;2.10;;;;;;;10.84;49.03;101107.96;2717385;87;21545;-66
2021/04/13 15:31:17;;;;;;;3.40;1.90;;;;;;;10.84;49.12;101106.63;2765227;86;21184;-67
2021/04/13 15:35:44;;;;;;;2.55;1.85;;;;;;;10.69;48.83;101109.39;2717789;87;21117;-66
2021/04/13 15:39:47;;;;;;;3.87;1.15;;;;;;;10.78;49.25;101106.58;2764823;86;21179;-66
2021/04/13 15:43:58;;;;;;;3.47;1.80;;;;;;;10.61;48.09;101107.76;2714050;87;21558;-66
2021/04/13 15:48:21;;;;;;;2.67;1.57;;;;;;;10.44;48.27;101107.56;2760213;86;21228;-66
2021/04/13 15:52:24;;;;;;;0.88;0.88;;;;;;;10.30;47.85;101107.15;2725494;87;21593;-67
2021/04/13 15:56:29;;;;;;;3.75;3.08;;;;;;;10.22;49.69;101106.80;2760089;86;21685;-66
2021/04/13 16:00:34;;;;;;;2.60;1.40;;;;;;;10.21;50.29;101111.73;2725425;86;21143;-66
2021/04/13 16:04:38;;;;;;;2.37;1.55;;;;;;;10.18;51.25;101106.17;2760402;86;21197;-66
2021/04/13 16:08:41;;;;;;;2.15;1.62;;;;;;;10.19;50.46;101099.03;2725723;87;21958;-66
2021/04/13 16:12:48;;;;;;;3.22;1.75;;;;;;;10.10;50.53;101100.03;2760234;86;21544;-66
2021/04/13 16:16:51;;;;;;;1.07;1.00;;;;;;;10.04;51.46;101101.78;2725642;87;21181;-67
2021/04/13 16:20:55;;;;;;;1.77;1.42;;;;;;;9.98;52.33;101104.83;2760117;86;21196;-66
2021/04/13 16:24:58;;;;;;;1.55;1.00;;;;;;;9.93;52.63;101105.63;2717050;85;21665;-68
2021/04/13 16:29:02;;;;;;;2.25;1.05;;;;;;;9.95;51.41;101109.02;2736766;84;21249;-69
2021/04/13 16:33:06;;;;;;;2.10;1.13;;;;;;;9.92;50.47;101111.89;2732509;86;21210;-68
2021/04/13 16:37:28;;;;;;;2.30;1.22;;;;;;;9.83;50.13;101109.36;2712437;87;21172;-68
2021/04/13 16:41:34;;;;;;;2.20;1.30;;;;;;;9.81;50.56;101109.45;2739612;86;21212;-69
2021/04/13 16:46:12;;;;;;;1.42;1.32;;;;;;;9.77;51.30;101107.95;2739592;85;21191;-70
2021/04/13 16:50:22;;;;;;;0.78;0.68;;;;;;;9.71;52.43;101110.53;2740563;86;21537;-69
2021/04/13 16:54:25;;;;;;;2.20;1.12;;;;;;;9.53;52.41;101107.73;2740661;86;21162;-66
2021/04/13 16:58:28;;;;;;;1.52;0.93;;;;;;;9.41;53.14;101109.38;2740347;86;21238;-69
2021/04/13 17:02:45;;;;;;;2.62;2.02;;;;;;;9.27;52.36;101104.48;2740277;86;21186;-69
2021/04/13 17:06:53;;;;;;;3.30;1.82;;;;;;;9.19;53.93;101102.77;2740346;86;21179;-69
2021/04/13 17:11:19;;;;;;;3.50;1.30;;;;;;;9.06;54.44;101101.86;2739453;86;21209;-68
2021/04/13 17:15:41;;;;;;;1.47;1.15;;;;;;;8.93;54.37;101116.34;2739102;86;21191;-68
2021/04/13 17:19:48;;;;;;;3.60;1.80;;;;;;;8.90;53.57;101101.94;2739037;86;21159;-70
2021/04/13 17:23:53;;;;;;;2.92;1.67;;;;;;;8.91;55.06;101101.86;2738115;86;21177;-69
2021/04/13 17:28:18;;;;;;;1.05;0.95;;;;;;;8.91;56.26;101104.97;2738740;86;21222;-67
2021/04/13 17:32:24;;;;;;;3.05;1.40;;;;;;;8.87;56.89;101112.29;2709427;86;21189;-69
2021/04/13 17:36:37;;;;;;;4.55;2.15;;;;;;;8.79;57.50;101106.12;2698163;87;21201;-67
2021/04/13 17:40:45;;;;;;;2.67;1.87;;;;;;;8.63;58.46;101110.16;2777186;85;21145;-69
2021/04/13 17:44:57;;;;;;;6.45;1.67;;;;;;;8.47;58.09;101115.52;2777613;85;21141;-69
2021/04/13 17:49:02;;;;;;;2.33;2.10;;;;;;;8.40;57.48;101117.67;2777355;85;21164;-71
2021/04/13 17:53:13;;;;;;;2.35;2.15;;;;;;;8.34;57.99;101119.83;2697085;87;21196;-69
2021/04/13 17:57:19;;;;;;;4.80;2.70;;;;;;;8.24;58.25;101122.17;2719149;87;21635;-68
2021/04/13 18:01:28;;;;;;;4.45;1.85;;;;;;;8.14;58.06;101120.08;2725829;87;21181;-68
2021/04/13 18:05:38;;;;;;;2.75;1.92;;;;;;;8.09;58.92;101129.23;2765410;86;21183;-64
2021/04/13 18:09:48;;;;;;;4.42;2.87;;;;;;;7.98;59.59;101125.42;2717933;87;21173;-66
2021/04/13 18:13:55;;;;;;;5.78;2.45;;;;;;;7.88;59.95;101121.58;2775792;84;21177;-67
2021/04/13 18:18:22;;;;;;;4.83;3.67;;;;;;;7.80;60.07;101123.82;2761252;85;21145;-65
2021/04/13 18:22:36;;;;;;;8.58;3.55;;;;;;;7.75;60.44;101124.07;3011368;78;23005;-67
2021/04/13 18:26:43;;;;;;;11.53;6.87;;;;;;;7.66;60.26;101123.25;2967800;80;21153;-66
2021/04/13 18:30:47;;;;;;;19.15;9.83;;;;;;;7.63;60.34;101120.78;2860279;83;21144;-65
2021/04/13 18:35:00;;;;;;;7.35;5.03;;;;;;;7.58;60.49;101117.92;2909778;81;21138;-65
2021/04/13 18:39:07;;;;;;;9.83;7.25;;;;;;;7.56;60.74;101123.78;2855097;83;21518;-67
2021/04/13 18:43:21;;;;;;;8.83;6.58;;;;;;;7.56;61.27;101124.23;2832014;82;21347;-66
2021/04/13 18:47:28;;;;;;;6.25;4.87;;;;;;;7.56;61.34;101124.23;2826399;82;21657;-68
2021/04/13 18:51:35;;;;;;;10.98;7.33;;;;;;;7.54;61.18;101126.98;2823993;82;21190;-66
2021/04/13 18:55:46;;;;;;;11.90;8.20;;;;;;;7.50;61.19;101124.13;2828444;82;21173;-68
2021/04/13 19:00:06;;;;;;;17.25;11.03;;;;;;;7.46;61.21;101129.19;2834941;82;21188;-66
2021/04/13 19:04:10;;;;;;;21.20;10.55;;;;;;;7.42;61.37;101130.30;2818752;82;21139;-66
2021/04/13 19:08:32;;;;;;;13.68;10.55;;;;;;;7.38;61.61;101128.31;2829696;82;21331;-68
2021/04/13 19:12:41;;;;;;;16.40;11.60;;;;;;;7.33;61.85;101130.34;2819309;82;21628;-65
2021/04/13 19:16:47;;;;;;;14.15;8.58;;;;;;;7.33;61.97;101137.44;2820323;82;21677;-68
2021/04/13 19:21:23;;;;;;;17.12;10.08;;;;;;;7.24;62.31;101140.95;2819700;82;21144;-67
2021/04/13 19:25:31;;;;;;;25.68;16.17;;;;;;;7.16;62.50;101137.88;2832158;82;21188;-67
2021/04/13 19:29:42;;;;;;;122.13;70.28;;;;;;;7.10;63.05;101130.28;2816554;82;21650;-68
2021/04/13 19:33:47;;;;;;;80.87;40.10;;;;;;;7.05;63.45;101133.17;2821976;82;21107;-67
2021/04/13 19:37:58;;;;;;;64.87;32.83;;;;;;;7.00;63.24;101133.89;2816354;84;21155;-66
2021/04/13 19:42:35;;;;;;;51.95;23.00;;;;;;;6.97;63.33;101140.19;2821414;82;21176;-69
2021/04/13 19:46:38;;;;;;;;;;;;;;;6.94;63.66;101127.13;2841192;82;21204;-67
2021/04/13 19:51:05;;;;;;;38.92;19.73;;;;;;;6.90;63.79;101132.20;2831636;82;20169;-66